Time;durP1;ratioP1;P1;durP2;ratioP2;P2;SDS_P1;SDS_P2;PMS_P1;PMS_P2;Temp;Humidity;BMP_temperature;BMP_pressure;BME280_temperature;BME280_humidity;BME280_pressure;Samples;Min_cycle;Max_cycle;Signal;HPM_P1;HPM_P2
2021/10/06 00:02:23;;;;;;;7.57;1.63;;;;;;;;;;5054490;28;20111;-86
2021/10/06 00:04:49;;;;;;;8.48;1.90;;;;;;;;;;5054554;28;20050;-86
2021/10/06 00:07:17;;;;;;;6.50;1.45;;;;;;;;;;5054131;28;20029;-85
2021/10/06 00:09:42;;;;;;;15.35;1.88;;;;;;;;;;5088148;28;20044;-86
2021/10/06 00:12:07;;;;;;;6.25;1.70;;;;;;;;;;5054437;28;20021;-87
2021/10/06 00:14:33;;;;;;;8.95;2.10;;;;;;;;;;5088501;28;20028;-86
2021/10/06 00:16:58;;;;;;;5.00;1.55;;;;;;;;;;5054738;28;20097;-84
2021/10/06 00:19:23;;;;;;;8.43;1.90;;;;;;;;;;5054363;28;20029;-86
2021/10/06 00:21:48;;;;;;;10.85;1.70;;;;;;;;;;5057746;28;20533;-86
2021/10/06 00:24:14;;;;;;;9.13;1.73;;;;;;;;;;5058116;28;20025;-86
2021/10/06 00:26:39;;;;;;;10.70;1.95;;;;;;;;;;5057930;28;20017;-86
2021/10/06 00:29:05;;;;;;;10.60;1.73;;;;;;;;;;5057463;28;20025;-86
2021/10/06 00:31:31;;;;;;;12.68;1.88;;;;;;;;;;5057623;28;20671;-86
2021/10/06 00:33:56;;;;;;;4.82;1.45;;;;;;;;;;5057698;28;20016;-86
2021/10/06 00:36:21;;;;;;;3.83;1.20;;;;;;;;;;5075780;28;20017;-86
2021/10/06 00:38:47;;;;;;;11.10;2.35;;;;;;;;;;5057739;28;20407;-87
2021/10/06 00:41:12;;;;;;;14.43;3.05;;;;;;;;;;5057941;28;20479;-86
2021/10/06 00:43:37;;;;;;;7.28;1.50;;;;;;;;;;5057656;28;20078;-85
2021/10/06 00:46:02;;;;;;;9.95;1.52;;;;;;;;;;5057329;28;20032;-86
2021/10/06 00:48:28;;;;;;;6.20;1.20;;;;;;;;;;5057562;28;20103;-86
2021/10/06 00:50:53;;;;;;;6.70;1.77;;;;;;;;;;5057732;28;20044;-86
2021/10/06 00:53:22;;;;;;;11.18;1.50;;;;;;;;;;5057720;28;20016;-87
2021/10/06 00:55:49;;;;;;;11.48;1.50;;;;;;;;;;5075052;28;20016;-86
2021/10/06 00:58:15;;;;;;;8.40;1.42;;;;;;;;;;5048773;28;20077;-86
2021/10/06 01:00:40;;;;;;;8.40;1.55;;;;;;;;;;5057167;28;20020;-86
2021/10/06 01:03:06;;;;;;;5.30;1.60;;;;;;;;;;5057517;28;20048;-86
2021/10/06 01:05:31;;;;;;;6.38;1.35;;;;;;;;;;5057389;28;20025;-86
2021/10/06 01:07:57;;;;;;;4.97;1.42;;;;;;;;;;5075223;28;20509;-86
2021/10/06 01:10:22;;;;;;;5.85;0.90;;;;;;;;;;5075435;28;20092;-86
2021/10/06 01:12:47;;;;;;;8.90;1.27;;;;;;;;;;5057329;28;20016;-86
2021/10/06 01:15:13;;;;;;;9.30;1.20;;;;;;;;;;5057126;28;20027;-86
2021/10/06 01:17:39;;;;;;;7.32;1.38;;;;;;;;;;5057115;28;20028;-86
2021/10/06 01:20:05;;;;;;;3.95;1.00;;;;;;;;;;5057299;28;20013;-86
2021/10/06 01:22:30;;;;;;;6.70;1.30;;;;;;;;;;5056919;28;20021;-86
2021/10/06 01:24:56;;;;;;;5.85;0.98;;;;;;;;;;5056568;28;20017;-86
2021/10/06 01:27:21;;;;;;;7.57;1.23;;;;;;;;;;5057158;28;20020;-86
2021/10/06 01:29:47;;;;;;;3.95;1.20;;;;;;;;;;5056422;28;20024;-86
2021/10/06 01:32:13;;;;;;;7.10;1.42;;;;;;;;;;5056665;28;20021;-86
2021/10/06 01:34:38;;;;;;;4.80;0.90;;;;;;;;;;5057049;28;20119;-86
2021/10/06 01:37:04;;;;;;;3.30;0.80;;;;;;;;;;5056429;28;20066;-86
2021/10/06 01:39:29;;;;;;;5.55;0.93;;;;;;;;;;5056443;28;20025;-86
2021/10/06 01:41:54;;;;;;;5.88;1.05;;;;;;;;;;5056650;28;20020;-86
2021/10/06 01:44:19;;;;;;;8.40;0.70;;;;;;;;;;5056416;28;20407;-86
2021/10/06 01:46:45;;;;;;;3.97;0.80;;;;;;;;;;5055917;28;20634;-86
2021/10/06 01:49:11;;;;;;;9.95;1.08;;;;;;;;;;5057050;28;20463;-86
2021/10/06 01:51:36;;;;;;;7.85;1.00;;;;;;;;;;5056637;28;20093;-86
2021/10/06 01:54:03;;;;;;;12.45;0.85;;;;;;;;;;5056362;28;20016;-86
2021/10/06 01:56:28;;;;;;;5.05;1.20;;;;;;;;;;5056479;28;20024;-86
2021/10/06 01:58:53;;;;;;;8.15;1.27;;;;;;;;;;5056341;28;20028;-86
2021/10/06 02:01:18;;;;;;;3.65;0.70;;;;;;;;;;5074246;28;20013;-86
2021/10/06 02:03:44;;;;;;;3.53;0.77;;;;;;;;;;5053608;28;20476;-86
2021/10/06 02:06:09;;;;;;;6.65;1.00;;;;;;;;;;5051052;28;20052;-86
2021/10/06 02:08:34;;;;;;;10.40;1.15;;;;;;;;;;5056096;28;20027;-86
2021/10/06 02:10:59;;;;;;;3.80;0.60;;;;;;;;;;5074120;28;20009;-86
2021/10/06 02:13:25;;;;;;;4.07;0.90;;;;;;;;;;5055440;28;20032;-86
2021/10/06 02:15:50;;;;;;;5.68;1.25;;;;;;;;;;5054115;28;20020;-86
2021/10/06 02:18:15;;;;;;;15.05;1.42;;;;;;;;;;5053752;28;20024;-87
2021/10/06 02:20:40;;;;;;;6.00;1.10;;;;;;;;;;5055876;28;20384;-85
2021/10/06 02:23:06;;;;;;;4.60;0.90;;;;;;;;;;5055560;28;20154;-86
2021/10/06 02:25:31;;;;;;;3.22;0.85;;;;;;;;;;5056143;28;20051;-86
2021/10/06 02:27:56;;;;;;;5.60;0.88;;;;;;;;;;5055093;28;20032;-85
2021/10/06 02:30:21;;;;;;;4.63;0.85;;;;;;;;;;5055789;28;20027;-86
2021/10/06 02:32:46;;;;;;;8.60;1.00;;;;;;;;;;5055494;28;20027;-86
2021/10/06 02:35:12;;;;;;;4.47;0.80;;;;;;;;;;5055711;28;20376;-86
2021/10/06 02:37:38;;;;;;;5.20;1.00;;;;;;;;;;5055491;28;20074;-86
2021/10/06 02:40:05;;;;;;;2.05;0.65;;;;;;;;;;5055118;28;20467;-86
2021/10/06 02:42:30;;;;;;;3.80;1.13;;;;;;;;;;5055626;28;20016;-86
2021/10/06 02:44:55;;;;;;;2.17;0.63;;;;;;;;;;5054486;28;20107;-86
2021/10/06 02:47:21;;;;;;;7.88;0.70;;;;;;;;;;5073348;28;20023;-86
2021/10/06 02:49:46;;;;;;;2.97;0.80;;;;;;;;;;5055600;28;20021;-86
2021/10/06 02:52:11;;;;;;;3.72;0.93;;;;;;;;;;5055119;28;20023;-86
2021/10/06 02:54:36;;;;;;;6.75;0.73;;;;;;;;;;5055257;28;20082;-86
2021/10/06 02:57:01;;;;;;;3.20;0.93;;;;;;;;;;5055173;28;20020;-86
2021/10/06 02:59:30;;;;;;;8.45;0.77;;;;;;;;;;5072786;28;20033;-85
2021/10/06 03:01:55;;;;;;;6.57;0.73;;;;;;;;;;5054969;28;20039;-86
2021/10/06 03:04:21;;;;;;;4.60;0.65;;;;;;;;;;5053396;28;20020;-86
2021/10/06 03:06:46;;;;;;;10.82;1.13;;;;;;;;;;5053442;28;20028;-86
2021/10/06 03:09:12;;;;;;;2.72;0.70;;;;;;;;;;5053696;28;20079;-86
2021/10/06 03:11:38;;;;;;;6.25;0.70;;;;;;;;;;5053866;28;20033;-86
2021/10/06 03:14:03;;;;;;;2.78;0.60;;;;;;;;;;5053039;28;20020;-86
2021/10/06 03:16:28;;;;;;;1.73;0.70;;;;;;;;;;5053233;28;20020;-86
2021/10/06 03:18:53;;;;;;;3.38;0.70;;;;;;;;;;5053553;28;20028;-86
2021/10/06 03:21:19;;;;;;;3.60;0.80;;;;;;;;;;5053358;28;20044;-86
2021/10/06 03:23:44;;;;;;;1.48;0.60;;;;;;;;;;5054032;28;20040;-86
2021/10/06 03:26:09;;;;;;;6.72;1.10;;;;;;;;;;5054741;28;20032;-86
2021/10/06 03:28:34;;;;;;;13.88;0.95;;;;;;;;;;5054868;28;20020;-85
2021/10/06 03:30:59;;;;;;;6.55;1.38;;;;;;;;;;5054494;28;20082;-86
2021/10/06 03:33:24;;;;;;;6.35;0.98;;;;;;;;;;5054824;28;20414;-86
2021/10/06 03:35:50;;;;;;;6.18;0.57;;;;;;;;;;5072837;28;20016;-86
2021/10/06 03:38:15;;;;;;;6.95;1.00;;;;;;;;;;5054354;28;20021;-86
2021/10/06 03:40:40;;;;;;;6.28;0.80;;;;;;;;;;5054890;28;20017;-86
2021/10/06 03:43:06;;;;;;;4.25;0.77;;;;;;;;;;5054836;28;20483;-86
2021/10/06 03:45:31;;;;;;;8.15;0.85;;;;;;;;;;5054176;28;20024;-86
2021/10/06 03:47:56;;;;;;;5.43;0.50;;;;;;;;;;5054294;28;20495;-86
2021/10/06 03:50:21;;;;;;;6.07;0.90;;;;;;;;;;5054607;28;20070;-86
2021/10/06 03:52:47;;;;;;;3.20;0.80;;;;;;;;;;5054878;28;20021;-86
2021/10/06 03:55:12;;;;;;;4.75;1.10;;;;;;;;;;5055589;28;20023;-85
2021/10/06 03:57:37;;;;;;;2.95;0.60;;;;;;;;;;5058597;28;20027;-86
2021/10/06 04:00:07;;;;;;;5.30;0.70;;;;;;;;;;5076429;28;20025;-86
2021/10/06 04:02:32;;;;;;;3.28;0.70;;;;;;;;;;5058595;28;20468;-86
2021/10/06 04:04:57;;;;;;;8.48;0.70;;;;;;;;;;5058470;28;20034;-86
2021/10/06 04:07:22;;;;;;;2.85;0.80;;;;;;;;;;5057837;28;20069;-86
2021/10/06 04:09:47;;;;;;;3.35;0.63;;;;;;;;;;5058524;28;20099;-86
2021/10/06 04:12:13;;;;;;;6.28;0.80;;;;;;;;;;5058372;28;20012;-86
2021/10/06 04:14:38;;;;;;;3.65;1.27;;;;;;;;;;5058393;28;20023;-86
2021/10/06 04:17:03;;;;;;;5.18;0.90;;;;;;;;;;5058339;28;20035;-86
2021/10/06 04:19:28;;;;;;;4.28;0.70;;;;;;;;;;5058153;28;20111;-85
2021/10/06 04:21:53;;;;;;;5.20;0.60;;;;;;;;;;5057884;28;20021;-86
2021/10/06 04:24:19;;;;;;;10.95;1.05;;;;;;;;;;5058103;28;20494;-86
2021/10/06 04:26:44;;;;;;;2.05;0.60;;;;;;;;;;5075965;28;20029;-86
2021/10/06 04:29:09;;;;;;;3.85;0.70;;;;;;;;;;5076101;28;20025;-86
2021/10/06 04:31:34;;;;;;;9.00;1.27;;;;;;;;;;5057766;28;20016;-86
2021/10/06 04:33:59;;;;;;;4.10;0.70;;;;;;;;;;5075683;28;20013;-86
2021/10/06 04:36:25;;;;;;;8.38;0.95;;;;;;;;;;5057847;28;20036;-86
2021/10/06 04:38:50;;;;;;;8.02;0.60;;;;;;;;;;5057788;28;20013;-86
2021/10/06 04:41:15;;;;;;;5.30;0.80;;;;;;;;;;5057608;28;20023;-86
2021/10/06 04:43:41;;;;;;;4.05;0.60;;;;;;;;;;5057875;28;20432;-87
2021/10/06 04:46:06;;;;;;;6.07;0.90;;;;;;;;;;5058089;28;20073;-87
2021/10/06 04:48:31;;;;;;;3.45;0.77;;;;;;;;;;5056825;28;20020;-87
2021/10/06 04:50:56;;;;;;;3.53;0.70;;;;;;;;;;5057861;28;20468;-87
2021/10/06 04:53:21;;;;;;;2.83;0.63;;;;;;;;;;5041639;28;20025;-87
2021/10/06 04:55:48;;;;;;;7.53;0.70;;;;;;;;;;5079133;28;20021;-87
2021/10/06 04:58:13;;;;;;;4.40;1.00;;;;;;;;;;5057551;28;20031;-87
2021/10/06 05:00:38;;;;;;;5.88;0.90;;;;;;;;;;5057022;28;20028;-86
2021/10/06 05:03:07;;;;;;;3.78;0.80;;;;;;;;;;5057319;28;20052;-87
2021/10/06 05:05:34;;;;;;;4.90;0.80;;;;;;;;;;5075196;28;20032;-87
2021/10/06 05:07:59;;;;;;;10.07;0.77;;;;;;;;;;5055911;28;20020;-85
2021/10/06 05:10:24;;;;;;;2.42;0.47;;;;;;;;;;5057061;28;20017;-86
2021/10/06 05:12:49;;;;;;;4.53;0.63;;;;;;;;;;5057243;28;20062;-87
2021/10/06 05:15:14;;;;;;;4.57;0.90;;;;;;;;;;5056502;28;20031;-86
2021/10/06 05:17:40;;;;;;;7.85;1.70;;;;;;;;;;5056935;28;20428;-86
2021/10/06 05:20:05;;;;;;;5.10;2.25;;;;;;;;;;5075078;28;20031;-86
2021/10/06 05:22:30;;;;;;;4.15;0.65;;;;;;;;;;5057145;28;20024;-87
2021/10/06 05:24:56;;;;;;;3.20;0.70;;;;;;;;;;5056978;28;20483;-87
2021/10/06 05:27:21;;;;;;;3.58;0.98;;;;;;;;;;5074387;28;20035;-87
2021/10/06 05:29:46;;;;;;;2.97;0.70;;;;;;;;;;5056701;28;20020;-87
2021/10/06 05:32:11;;;;;;;6.80;1.33;;;;;;;;;;5057063;28;20462;-86
2021/10/06 05:34:36;;;;;;;6.40;0.80;;;;;;;;;;5056751;28;20494;-87
2021/10/06 05:37:02;;;;;;;1.63;0.52;;;;;;;;;;5056867;28;20017;-87
2021/10/06 05:39:27;;;;;;;3.65;0.68;;;;;;;;;;5057168;28;20036;-88
2021/10/06 05:41:52;;;;;;;3.78;0.68;;;;;;;;;;5056376;28;20162;-87
2021/10/06 05:44:17;;;;;;;4.53;0.85;;;;;;;;;;5056341;28;20476;-87
2021/10/06 05:46:42;;;;;;;2.70;0.88;;;;;;;;;;5055997;28;20024;-87
2021/10/06 05:49:08;;;;;;;4.57;0.80;;;;;;;;;;5056696;28;20054;-87
2021/10/06 05:51:33;;;;;;;4.80;0.90;;;;;;;;;;5056527;28;20028;-86
2021/10/06 05:53:58;;;;;;;6.13;0.80;;;;;;;;;;5056555;28;20023;-87
2021/10/06 05:56:24;;;;;;;6.05;1.35;;;;;;;;;;5056219;28;20028;-87
2021/10/06 05:58:49;;;;;;;3.03;0.90;;;;;;;;;;5056266;28;20025;-87
2021/10/06 06:01:14;;;;;;;4.55;0.80;;;;;;;;;;5056376;28;20046;-87
2021/10/06 06:03:39;;;;;;;5.13;1.05;;;;;;;;;;5056119;28;20165;-87
2021/10/06 06:06:05;;;;;;;8.68;1.33;;;;;;;;;;5054724;28;20536;-87
2021/10/06 06:08:30;;;;;;;8.35;1.20;;;;;;;;;;5061305;28;20073;-87
2021/10/06 06:10:55;;;;;;;6.93;1.48;;;;;;;;;;5054791;28;20023;-87
2021/10/06 06:13:20;;;;;;;5.38;1.02;;;;;;;;;;5053033;28;20071;-87
2021/10/06 06:15:47;;;;;;;4.00;0.90;;;;;;;;;;5083957;28;20056;-86
2021/10/06 06:18:12;;;;;;;5.43;0.80;;;;;;;;;;5053092;28;20082;-87
2021/10/06 06:20:37;;;;;;;4.78;0.95;;;;;;;;;;5041596;28;20025;-87
2021/10/06 06:23:03;;;;;;;7.50;1.27;;;;;;;;;;5054077;28;20487;-87
2021/10/06 06:25:28;;;;;;;5.50;1.10;;;;;;;;;;5055737;28;20078;-86
2021/10/06 06:27:54;;;;;;;9.27;1.13;;;;;;;;;;5055570;28;20024;-87
2021/10/06 06:30:19;;;;;;;7.70;0.80;;;;;;;;;;5055483;28;20017;-87
2021/10/06 06:32:44;;;;;;;2.38;0.80;;;;;;;;;;5055084;28;20020;-87
2021/10/06 06:35:10;;;;;;;8.32;1.10;;;;;;;;;;5055857;28;20464;-87
2021/10/06 06:37:36;;;;;;;10.20;1.45;;;;;;;;;;5054453;28;20115;-87
2021/10/06 06:40:01;;;;;;;8.73;1.38;;;;;;;;;;5059229;28;20123;-86
2021/10/06 06:42:26;;;;;;;4.25;1.02;;;;;;;;;;5054135;28;20032;-87
2021/10/06 06:44:51;;;;;;;4.78;0.98;;;;;;;;;;5078947;28;20496;-87
2021/10/06 06:47:16;;;;;;;8.15;1.00;;;;;;;;;;5061979;28;20029;-87
2021/10/06 06:49:42;;;;;;;10.57;1.20;;;;;;;;;;5064237;28;20024;-86
2021/10/06 06:52:07;;;;;;;5.47;1.00;;;;;;;;;;5055288;28;20028;-87
2021/10/06 06:54:33;;;;;;;3.65;0.70;;;;;;;;;;5054938;28;20027;-87
2021/10/06 06:56:58;;;;;;;5.32;0.80;;;;;;;;;;5065817;28;20095;-87
2021/10/06 06:59:23;;;;;;;8.43;1.13;;;;;;;;;;5057459;28;20468;-87
2021/10/06 07:01:49;;;;;;;3.28;0.80;;;;;;;;;;5055316;28;20032;-87
2021/10/06 07:04:14;;;;;;;5.68;1.10;;;;;;;;;;5055186;28;20432;-87
2021/10/06 07:06:40;;;;;;;6.65;1.13;;;;;;;;;;5055238;28;20024;-87
2021/10/06 07:09:05;;;;;;;4.78;1.20;;;;;;;;;;5056396;28;20019;-88
2021/10/06 07:11:31;;;;;;;5.35;0.88;;;;;;;;;;5073193;28;20020;-88
2021/10/06 07:13:56;;;;;;;8.10;1.38;;;;;;;;;;5055032;28;20642;-87
2021/10/06 07:16:21;;;;;;;3.33;1.00;;;;;;;;;;5049140;28;20074;-87
2021/10/06 07:18:46;;;;;;;4.65;1.00;;;;;;;;;;5049735;28;20078;-88
2021/10/06 07:21:12;;;;;;;3.10;1.15;;;;;;;;;;5054737;28;20154;-87
2021/10/06 07:23:37;;;;;;;5.18;1.35;;;;;;;;;;5054755;28;20479;-87
2021/10/06 07:26:03;;;;;;;6.70;1.20;;;;;;;;;;5054666;28;20020;-87
2021/10/06 07:28:28;;;;;;;3.72;1.10;;;;;;;;;;5054655;28;20025;-87
2021/10/06 07:30:54;;;;;;;7.57;1.10;;;;;;;;;;5053949;28;20027;-87
2021/10/06 07:33:19;;;;;;;4.97;1.13;;;;;;;;;;5062242;28;20170;-88
2021/10/06 07:35:44;;;;;;;2.40;1.17;;;;;;;;;;5057012;28;20017;-87
2021/10/06 07:38:09;;;;;;;4.65;1.30;;;;;;;;;;5054360;28;20021;-87
2021/10/06 07:40:35;;;;;;;6.95;1.30;;;;;;;;;;5070841;28;20091;-88
2021/10/06 07:43:00;;;;;;;4.15;1.23;;;;;;;;;;5050776;28;20357;-88
2021/10/06 07:45:25;;;;;;;4.03;1.23;;;;;;;;;;5053297;28;20070;-87
2021/10/06 07:47:50;;;;;;;9.02;1.63;;;;;;;;;;5054862;28;20021;-87
2021/10/06 07:50:16;;;;;;;5.68;1.73;;;;;;;;;;5054142;28;20078;-88
2021/10/06 07:52:41;;;;;;;3.72;1.35;;;;;;;;;;5054886;28;20026;-88
2021/10/06 07:55:06;;;;;;;3.33;1.23;;;;;;;;;;5047689;28;20021;-88
2021/10/06 07:57:32;;;;;;;7.78;1.70;;;;;;;;;;5072876;28;20025;-88
2021/10/06 07:59:57;;;;;;;4.22;1.15;;;;;;;;;;5054370;28;20024;-88
2021/10/06 08:02:23;;;;;;;6.10;2.03;;;;;;;;;;5055140;28;20029;-88
2021/10/06 08:04:49;;;;;;;5.43;1.75;;;;;;;;;;5054754;28;20033;-87
2021/10/06 08:07:14;;;;;;;2.35;1.17;;;;;;;;;;5054588;28;20788;-88
2021/10/06 08:09:39;;;;;;;6.40;1.35;;;;;;;;;;5054400;28;20032;-88
2021/10/06 08:12:20;;;;;;;4.72;1.33;;;;;;;;;;5054540;28;20022;-88
2021/10/06 08:14:45;;;;;;;3.55;1.58;;;;;;;;;;5054351;28;20048;-88
2021/10/06 08:17:10;;;;;;;3.47;1.55;;;;;;;;;;5047105;28;20024;-87
2021/10/06 08:19:35;;;;;;;5.85;2.08;;;;;;;;;;5054606;28;20023;-88
2021/10/06 08:22:02;;;;;;;5.95;2.35;;;;;;;;;;5054542;28;20048;-88
2021/10/06 08:24:28;;;;;;;4.43;1.45;;;;;;;;;;5054573;28;20035;-89
2021/10/06 08:26:53;;;;;;;3.28;1.52;;;;;;;;;;5054775;28;20032;-88
2021/10/06 08:29:18;;;;;;;6.88;1.50;;;;;;;;;;5054376;28;20020;-88
2021/10/06 08:31:43;;;;;;;5.88;1.73;;;;;;;;;;5054367;28;20047;-88
2021/10/06 08:34:09;;;;;;;6.35;1.80;;;;;;;;;;5054391;28;20052;-88
2021/10/06 08:36:34;;;;;;;5.18;1.70;;;;;;;;;;5054191;28;20468;-88
2021/10/06 08:39:00;;;;;;;7.43;1.70;;;;;;;;;;5054642;28;20021;-88
2021/10/06 08:41:25;;;;;;;3.15;1.60;;;;;;;;;;5054532;28;20487;-88
2021/10/06 08:43:50;;;;;;;3.47;1.67;;;;;;;;;;5057916;28;20024;-88
2021/10/06 08:46:15;;;;;;;6.43;1.67;;;;;;;;;;5076226;28;20016;-88
2021/10/06 08:48:51;;;;;;;5.78;1.80;;;;;;;;;;5091590;28;20024;-88
2021/10/06 08:51:16;;;;;;;5.32;1.88;;;;;;;;;;5057989;28;20111;-88
2021/10/06 08:53:41;;;;;;;7.18;1.77;;;;;;;;;;5056921;28;20051;-88
2021/10/06 08:56:06;;;;;;;3.53;1.70;;;;;;;;;;5045733;28;20112;-88
2021/10/06 08:58:31;;;;;;;5.20;2.10;;;;;;;;;;5070191;28;20017;-88
2021/10/06 09:00:58;;;;;;;4.55;1.98;;;;;;;;;;5056439;28;20029;-87
2021/10/06 09:03:24;;;;;;;3.83;1.80;;;;;;;;;;5056187;28;20036;-88
2021/10/06 09:05:59;;;;;;;4.25;1.90;;;;;;;;;;5056226;28;20021;-88
2021/10/06 09:08:25;;;;;;;2.72;1.80;;;;;;;;;;5055865;28;20027;-89
2021/10/06 09:10:51;;;;;;;4.82;2.03;;;;;;;;;;5055509;28;20471;-88
2021/10/06 09:13:16;;;;;;;4.55;1.77;;;;;;;;;;5055949;28;20021;-88
2021/10/06 09:15:42;;;;;;;3.67;2.13;;;;;;;;;;5056039;28;20023;-87
2021/10/06 09:18:10;;;;;;;4.68;2.10;;;;;;;;;;5043629;28;20077;-88
2021/10/06 09:20:36;;;;;;;4.97;2.13;;;;;;;;;;5057509;28;20367;-88
2021/10/06 09:23:06;;;;;;;2.10;1.42;;;;;;;;;;5056964;28;20029;-87
2021/10/06 09:25:44;;;;;;;6.55;2.22;;;;;;;;;;5057375;28;20425;-88
2021/10/06 09:28:16;;;;;;;5.05;2.15;;;;;;;;;;5075070;28;20043;-88
2021/10/06 09:30:42;;;;;;;8.45;2.28;;;;;;;;;;5057011;28;20035;-87
2021/10/06 09:33:08;;;;;;;3.88;2.08;;;;;;;;;;5056752;28;20025;-88
2021/10/06 09:35:33;;;;;;;4.38;2.00;;;;;;;;;;5057166;28;20493;-88
2021/10/06 09:37:58;;;;;;;7.15;2.08;;;;;;;;;;5056619;28;20017;-89
2021/10/06 09:40:25;;;;;;;4.03;1.80;;;;;;;;;;5057149;28;20020;-88
2021/10/06 09:42:58;;;;;;;4.25;1.77;;;;;;;;;;5056595;28;20035;-88
2021/10/06 09:45:27;;;;;;;2.22;1.77;;;;;;;;;;5055736;28;20035;-88
2021/10/06 09:47:59;;;;;;;3.70;1.63;;;;;;;;;;5057069;28;20714;-88
2021/10/06 09:50:25;;;;;;;2.58;1.77;;;;;;;;;;5056647;28;20058;-88
2021/10/06 09:52:52;;;;;;;8.05;2.13;;;;;;;;;;5056326;28;20029;-88
2021/10/06 09:55:18;;;;;;;5.15;1.52;;;;;;;;;;5056500;28;20021;-88
2021/10/06 09:57:44;;;;;;;3.42;1.55;;;;;;;;;;5056882;28;20028;-87
2021/10/06 10:00:19;;;;;;;3.83;1.80;;;;;;;;;;5056423;28;20093;-88
2021/10/06 10:02:45;;;;;;;2.42;1.48;;;;;;;;;;5056639;28;20111;-88
2021/10/06 10:05:10;;;;;;;2.60;1.75;;;;;;;;;;5056452;28;20062;-87
2021/10/06 10:07:36;;;;;;;3.08;1.67;;;;;;;;;;5056630;28;20017;-88
2021/10/06 10:10:02;;;;;;;3.72;1.73;;;;;;;;;;5056227;28;20528;-88
2021/10/06 10:12:28;;;;;;;4.13;1.63;;;;;;;;;;5055894;28;20012;-88
2021/10/06 10:14:55;;;;;;;3.80;1.40;;;;;;;;;;5056535;28;20103;-88
2021/10/06 10:17:20;;;;;;;3.25;1.63;;;;;;;;;;5056296;28;20070;-88
2021/10/06 10:19:51;;;;;;;3.58;1.38;;;;;;;;;;5055834;28;20410;-88
2021/10/06 10:22:18;;;;;;;1.80;1.20;;;;;;;;;;5056342;28;20024;-88
2021/10/06 10:24:45;;;;;;;2.63;1.60;;;;;;;;;;5056093;28;20468;-88
2021/10/06 10:27:10;;;;;;;1.73;1.40;;;;;;;;;;5074129;28;20028;-89
2021/10/06 10:29:54;;;;;;;3.70;1.30;;;;;;;;;;5055861;28;20016;-88
2021/10/06 10:32:22;;;;;;;4.90;1.95;;;;;;;;;;5055879;28;20012;-88
2021/10/06 10:34:56;;;;;;;2.22;1.27;;;;;;;;;;5055766;28;20012;-88
2021/10/06 10:37:40;;;;;;;3.40;1.50;;;;;;;;;;5055693;28;20070;-88
2021/10/06 10:40:05;;;;;;;2.80;1.50;;;;;;;;;;5055713;28;20023;-88
2021/10/06 10:42:49;;;;;;;3.75;1.40;;;;;;;;;;5055875;28;20468;-88
2021/10/06 10:45:38;;;;;;;2.65;1.38;;;;;;;;;;5055475;28;20772;-89
2021/10/06 10:48:07;;;;;;;2.70;1.40;;;;;;;;;;5045702;28;20472;-88
2021/10/06 10:50:44;;;;;;;2.35;1.38;;;;;;;;;;5055725;28;20024;-88
2021/10/06 10:53:13;;;;;;;2.65;1.23;;;;;;;;;;5055482;28;20430;-87
2021/10/06 10:55:44;;;;;;;4.65;1.50;;;;;;;;;;5055440;28;20044;-87
2021/10/06 10:58:42;;;;;;;2.88;1.52;;;;;;;;;;5055550;28;20371;-88
2021/10/06 11:01:12;;;;;;;2.70;1.25;;;;;;;;;;5016764;28;20171;-88
2021/10/06 11:03:56;;;;;;;2.50;1.33;;;;;;;;;;5055515;28;20391;-87
2021/10/06 11:06:38;;;;;;;3.30;1.33;;;;;;;;;;5054716;28;20391;-88
2021/10/06 11:09:22;;;;;;;2.15;1.27;;;;;;;;;;5055222;28;20383;-88
2021/10/06 11:11:47;;;;;;;5.22;1.33;;;;;;;;;;5055184;28;20589;-88
2021/10/06 11:14:19;;;;;;;1.90;1.15;;;;;;;;;;5055028;28;20021;-88
2021/10/06 11:17:06;;;;;;;2.15;1.38;;;;;;;;;;5055213;28;20017;-88
2021/10/06 11:19:39;;;;;;;4.25;1.20;;;;;;;;;;5055254;28;20483;-88
2021/10/06 11:22:22;;;;;;;3.80;1.20;;;;;;;;;;5073096;28;20016;-87
2021/10/06 11:25:07;;;;;;;3.53;1.58;;;;;;;;;;5054987;28;20367;-88
2021/10/06 11:27:46;;;;;;;3.67;1.63;;;;;;;;;;5054487;28;20078;-88
2021/10/06 11:30:12;;;;;;;3.25;1.60;;;;;;;;;;5042485;28;20465;-88
2021/10/06 11:32:43;;;;;;;4.10;1.50;;;;;;;;;;5055362;28;20020;-88
2021/10/06 11:35:08;;;;;;;3.45;1.88;;;;;;;;;;5041206;28;20050;-88
2021/10/06 11:37:34;;;;;;;1.85;1.38;;;;;;;;;;5055078;28;20069;-88
2021/10/06 11:39:59;;;;;;;4.40;1.88;;;;;;;;;;5055002;28;20016;-88
2021/10/06 11:42:31;;;;;;;3.55;1.92;;;;;;;;;;5071899;28;20016;-88
2021/10/06 11:44:56;;;;;;;2.83;1.52;;;;;;;;;;5072604;28;20107;-88
2021/10/06 11:47:22;;;;;;;4.35;1.75;;;;;;;;;;5054199;28;20112;-88
2021/10/06 11:49:49;;;;;;;5.15;1.95;;;;;;;;;;5054895;28;20024;-88
2021/10/06 11:52:17;;;;;;;9.68;1.85;;;;;;;;;;5054774;28;20073;-88
2021/10/06 11:54:42;;;;;;;3.75;1.50;;;;;;;;;;5051467;28;20013;-88
2021/10/06 11:57:08;;;;;;;6.28;1.83;;;;;;;;;;5054759;28;20383;-88
2021/10/06 11:59:34;;;;;;;6.13;1.92;;;;;;;;;;5054640;28;20498;-88
2021/10/06 12:02:05;;;;;;;4.03;1.90;;;;;;;;;;5055014;28;20487;-88
2021/10/06 12:04:32;;;;;;;3.55;1.70;;;;;;;;;;5054523;28;20119;-88
2021/10/06 12:07:01;;;;;;;2.95;1.75;;;;;;;;;;5054538;28;20032;-88
2021/10/06 12:09:36;;;;;;;3.95;2.00;;;;;;;;;;5072814;28;20082;-88
2021/10/06 12:12:02;;;;;;;5.13;2.10;;;;;;;;;;5054322;28;20407;-88
2021/10/06 12:14:31;;;;;;;7.72;2.50;;;;;;;;;;5072276;28;20013;-88
2021/10/06 12:17:08;;;;;;;9.20;2.15;;;;;;;;;;5056756;28;20017;-88
2021/10/06 12:19:34;;;;;;;10.32;2.20;;;;;;;;;;5058275;28;20115;-88
2021/10/06 12:21:59;;;;;;;7.20;2.05;;;;;;;;;;5058669;28;20507;-88
2021/10/06 12:24:26;;;;;;;12.60;2.63;;;;;;;;;;5076247;28;20027;-87
2021/10/06 12:26:52;;;;;;;9.30;2.45;;;;;;;;;;5058452;28;20029;-88
2021/10/06 12:29:22;;;;;;;5.35;1.92;;;;;;;;;;5057698;28;20116;-88
2021/10/06 12:31:48;;;;;;;11.27;2.40;;;;;;;;;;5062726;28;20582;-88
2021/10/06 12:34:20;;;;;;;9.68;2.58;;;;;;;;;;5058370;28;20013;-88
2021/10/06 12:36:50;;;;;;;7.45;2.72;;;;;;;;;;5057925;28;20488;-87
2021/10/06 12:39:18;;;;;;;8.57;2.63;;;;;;;;;;5058277;28;20028;-88
2021/10/06 12:41:44;;;;;;;5.90;2.40;;;;;;;;;;5057901;28;20080;-88
2021/10/06 12:44:20;;;;;;;8.40;2.28;;;;;;;;;;5057736;28;20032;-88
2021/10/06 12:46:46;;;;;;;7.57;2.50;;;;;;;;;;5057312;28;20115;-88
2021/10/06 12:49:12;;;;;;;12.48;1.83;;;;;;;;;;5058026;28;20062;-88
2021/10/06 12:51:37;;;;;;;6.65;2.35;;;;;;;;;;5057909;28;20486;-87
2021/10/06 12:54:07;;;;;;;3.60;1.30;;;;;;;;;;5075863;28;20012;-88
2021/10/06 12:56:32;;;;;;;2.15;0.90;;;;;;;;;;5057325;28;20020;-87
2021/10/06 12:58:58;;;;;;;4.85;0.90;;;;;;;;;;5057707;28;20020;-88
2021/10/06 13:01:23;;;;;;;9.10;0.93;;;;;;;;;;5057467;28;20036;-87
2021/10/06 13:03:48;;;;;;;4.20;0.90;;;;;;;;;;5057439;28;20016;-87
2021/10/06 13:06:13;;;;;;;2.75;0.82;;;;;;;;;;5052879;28;20099;-88
2021/10/06 13:08:39;;;;;;;10.55;0.90;;;;;;;;;;5047942;28;20021;-88
2021/10/06 13:11:04;;;;;;;1.83;0.60;;;;;;;;;;5057249;28;20047;-88
2021/10/06 13:13:29;;;;;;;12.88;1.00;;;;;;;;;;5057185;28;20020;-88
2021/10/06 13:15:54;;;;;;;3.40;0.45;;;;;;;;;;5057314;28;20028;-88
2021/10/06 13:18:19;;;;;;;6.25;0.75;;;;;;;;;;5057244;28;20021;-87
2021/10/06 13:20:45;;;;;;;3.55;0.73;;;;;;;;;;5057549;28;20074;-88
2021/10/06 13:23:10;;;;;;;3.33;0.80;;;;;;;;;;5056598;28;20104;-87
2021/10/06 13:25:35;;;;;;;1.40;0.57;;;;;;;;;;5057007;28;20178;-87
2021/10/06 13:28:00;;;;;;;6.20;0.80;;;;;;;;;;5056019;28;20601;-87
2021/10/06 13:30:25;;;;;;;9.73;0.70;;;;;;;;;;5056906;28;20073;-88
2021/10/06 13:32:51;;;;;;;1.50;0.57;;;;;;;;;;5056899;28;20052;-87
2021/10/06 13:35:16;;;;;;;4.85;0.70;;;;;;;;;;5057017;28;20024;-88
2021/10/06 13:37:41;;;;;;;1.33;0.50;;;;;;;;;;5056025;28;20020;-87
2021/10/06 13:40:07;;;;;;;2.95;1.27;;;;;;;;;;5056637;28;20032;-88
2021/10/06 13:42:32;;;;;;;3.80;0.70;;;;;;;;;;5056762;28;20035;-87
2021/10/06 13:44:57;;;;;;;3.70;0.70;;;;;;;;;;5056540;28;20029;-87
2021/10/06 13:47:22;;;;;;;1.77;0.60;;;;;;;;;;5056096;28;20422;-87
2021/10/06 13:49:48;;;;;;;5.18;0.80;;;;;;;;;;5074372;28;20074;-87
2021/10/06 13:52:13;;;;;;;4.47;0.77;;;;;;;;;;5056525;28;20466;-87
2021/10/06 13:54:38;;;;;;;4.07;0.60;;;;;;;;;;5056738;28;20012;-87
2021/10/06 13:57:03;;;;;;;5.53;0.80;;;;;;;;;;5056242;28;20024;-87
2021/10/06 13:59:28;;;;;;;7.50;0.90;;;;;;;;;;5074637;28;20028;-87
2021/10/06 14:01:54;;;;;;;12.85;1.00;;;;;;;;;;5056470;28;20028;-87
2021/10/06 14:04:19;;;;;;;3.25;0.80;;;;;;;;;;5056292;28;20435;-87
2021/10/06 14:06:44;;;;;;;5.70;1.20;;;;;;;;;;5056118;28;20478;-87
2021/10/06 14:09:09;;;;;;;2.47;1.00;;;;;;;;;;5056382;28;20013;-87
2021/10/06 14:11:35;;;;;;;5.93;0.93;;;;;;;;;;5074051;28;20372;-87
2021/10/06 14:14:00;;;;;;;3.92;1.00;;;;;;;;;;5056256;28;20013;-86
2021/10/06 14:16:25;;;;;;;7.57;1.40;;;;;;;;;;5055778;28;20019;-87
2021/10/06 14:18:50;;;;;;;4.72;1.10;;;;;;;;;;5055705;28;20498;-87
2021/10/06 14:21:16;;;;;;;5.00;1.20;;;;;;;;;;5055765;28;20070;-88
2021/10/06 14:23:41;;;;;;;4.38;1.40;;;;;;;;;;5055971;28;20423;-87
2021/10/06 14:26:06;;;;;;;3.92;1.30;;;;;;;;;;5056065;28;20044;-87
2021/10/06 14:28:31;;;;;;;7.38;1.60;;;;;;;;;;5055389;28;20032;-87
2021/10/06 14:30:57;;;;;;;7.80;1.70;;;;;;;;;;5056102;28;20016;-87
2021/10/06 14:33:23;;;;;;;6.55;1.63;;;;;;;;;;5055981;28;20008;-88
2021/10/06 14:35:48;;;;;;;10.55;2.00;;;;;;;;;;5073725;28;20024;-87
2021/10/06 14:38:14;;;;;;;6.15;1.60;;;;;;;;;;5055327;28;20525;-86
2021/10/06 14:40:39;;;;;;;7.35;1.83;;;;;;;;;;5049784;28;20017;-87